sensor_id;sensor_type;location;lat;lon;timestamp;temperature;humidity
14699;DHT22;7439;50.804;4.602;2022-09-28T00:00:20;7.90;99.90
14699;DHT22;7439;50.804;4.602;2022-09-28T00:02:48;7.90;99.90
14699;DHT22;7439;50.804;4.602;2022-09-28T00:05:19;7.80;99.90
14699;DHT22;7439;50.804;4.602;2022-09-28T00:07:46;7.80;99.90
14699;DHT22;7439;50.804;4.602;2022-09-28T00:10:14;7.70;99.90
14699;DHT22;7439;50.804;4.602;2022-09-28T00:12:42;7.80;99.90
14699;DHT22;7439;50.804;4.602;2022-09-28T00:15:09;7.80;99.90
14699;DHT22;7439;50.804;4.602;2022-09-28T00:17:37;7.70;99.90
14699;DHT22;7439;50.804;4.602;2022-09-28T00:20:04;7.80;99.90
14699;DHT22;7439;50.804;4.602;2022-09-28T00:22:33;7.80;99.90
14699;DHT22;7439;50.804;4.602;2022-09-28T00:25:00;7.70;99.90
14699;DHT22;7439;50.804;4.602;2022-09-28T00:27:27;7.60;99.90
14699;DHT22;7439;50.804;4.602;2022-09-28T00:29:55;7.60;99.90
14699;DHT22;7439;50.804;4.602;2022-09-28T00:32:22;7.60;99.90
14699;DHT22;7439;50.804;4.602;2022-09-28T00:34:52;7.60;99.90
14699;DHT22;7439;50.804;4.602;2022-09-28T00:37:22;7.70;99.90
14699;DHT22;7439;50.804;4.602;2022-09-28T00:39:54;7.80;99.90
14699;DHT22;7439;50.804;4.602;2022-09-28T00:42:23;7.80;99.90
14699;DHT22;7439;50.804;4.602;2022-09-28T00:44:54;7.80;99.90
14699;DHT22;7439;50.804;4.602;2022-09-28T00:47:42;7.90;99.90
14699;DHT22;7439;50.804;4.602;2022-09-28T00:50:22;8.00;99.90
14699;DHT22;7439;50.804;4.602;2022-09-28T00:52:57;7.90;99.90
14699;DHT22;7439;50.804;4.602;2022-09-28T00:55:33;7.90;99.90
14699;DHT22;7439;50.804;4.602;2022-09-28T00:58:03;8.00;99.90
14699;DHT22;7439;50.804;4.602;2022-09-28T01:00:33;8.00;99.90
14699;DHT22;7439;50.804;4.602;2022-09-28T01:03:00;8.00;99.90
14699;DHT22;7439;50.804;4.602;2022-09-28T01:05:29;8.00;99.90
14699;DHT22;7439;50.804;4.602;2022-09-28T01:07:57;8.00;99.90
14699;DHT22;7439;50.804;4.602;2022-09-28T01:10:24;8.00;99.90
14699;DHT22;7439;50.804;4.602;2022-09-28T01:12:57;8.00;99.90
14699;DHT22;7439;50.804;4.602;2022-09-28T01:15:27;8.10;99.90
14699;DHT22;7439;50.804;4.602;2022-09-28T01:18:02;8.10;99.90
14699;DHT22;7439;50.804;4.602;2022-09-28T01:20:56;8.10;99.90
14699;DHT22;7439;50.804;4.602;2022-09-28T01:26:56;8.20;99.90
14699;DHT22;7439;50.804;4.602;2022-09-28T01:29:38;8.20;99.90
14699;DHT22;7439;50.804;4.602;2022-09-28T01:32:14;8.20;99.90
14699;DHT22;7439;50.804;4.602;2022-09-28T01:34:47;8.10;99.90
14699;DHT22;7439;50.804;4.602;2022-09-28T01:37:19;8.10;99.90
14699;DHT22;7439;50.804;4.602;2022-09-28T01:39:49;8.20;99.90
14699;DHT22;7439;50.804;4.602;2022-09-28T01:42:22;8.20;99.90
14699;DHT22;7439;50.804;4.602;2022-09-28T01:44:53;8.20;99.90
14699;DHT22;7439;50.804;4.602;2022-09-28T01:47:23;8.20;99.90
14699;DHT22;7439;50.804;4.602;2022-09-28T01:49:59;8.20;99.90
14699;DHT22;7439;50.804;4.602;2022-09-28T01:52:30;8.10;99.90
14699;DHT22;7439;50.804;4.602;2022-09-28T01:55:02;8.10;99.90
14699;DHT22;7439;50.804;4.602;2022-09-28T01:57:38;8.10;99.90
14699;DHT22;7439;50.804;4.602;2022-09-28T02:00:08;8.20;99.90
14699;DHT22;7439;50.804;4.602;2022-09-28T02:02:42;8.10;99.90
14699;DHT22;7439;50.804;4.602;2022-09-28T02:05:13;8.10;99.90
14699;DHT22;7439;50.804;4.602;2022-09-28T02:07:45;8.10;99.90
14699;DHT22;7439;50.804;4.602;2022-09-28T02:10:17;8.10;99.90
14699;DHT22;7439;50.804;4.602;2022-09-28T02:12:50;8.10;99.90
14699;DHT22;7439;50.804;4.602;2022-09-28T02:15:22;8.00;99.90
14699;DHT22;7439;50.804;4.602;2022-09-28T02:17:50;7.90;99.90
14699;DHT22;7439;50.804;4.602;2022-09-28T02:20:19;7.90;99.90
14699;DHT22;7439;50.804;4.602;2022-09-28T02:22:49;7.90;99.90
14699;DHT22;7439;50.804;4.602;2022-09-28T02:25:22;7.80;99.90
14699;DHT22;7439;50.804;4.602;2022-09-28T02:27:57;7.80;99.90
14699;DHT22;7439;50.804;4.602;2022-09-28T02:30:27;7.80;99.90
14699;DHT22;7439;50.804;4.602;2022-09-28T02:32:58;7.70;99.90
14699;DHT22;7439;50.804;4.602;2022-09-28T02:35:28;7.70;99.90
14699;DHT22;7439;50.804;4.602;2022-09-28T02:38:01;7.80;99.90
14699;DHT22;7439;50.804;4.602;2022-09-28T02:40:31;7.80;99.90
14699;DHT22;7439;50.804;4.602;2022-09-28T02:43:10;7.70;99.90
14699;DHT22;7439;50.804;4.602;2022-09-28T02:45:58;7.70;99.90
14699;DHT22;7439;50.804;4.602;2022-09-28T02:48:39;7.70;99.90
14699;DHT22;7439;50.804;4.602;2022-09-28T02:51:18;7.60;99.90
14699;DHT22;7439;50.804;4.602;2022-09-28T02:54:10;7.60;99.90
14699;DHT22;7439;50.804;4.602;2022-09-28T02:56:53;7.50;99.90
14699;DHT22;7439;50.804;4.602;2022-09-28T02:59:38;7.40;99.90
14699;DHT22;7439;50.804;4.602;2022-09-28T03:02:11;7.30;99.90
14699;DHT22;7439;50.804;4.602;2022-09-28T03:04:42;7.20;99.90
14699;DHT22;7439;50.804;4.602;2022-09-28T03:07:20;7.20;99.90
14699;DHT22;7439;50.804;4.602;2022-09-28T03:09:55;7.20;99.90
14699;DHT22;7439;50.804;4.602;2022-09-28T03:12:25;7.20;99.90
14699;DHT22;7439;50.804;4.602;2022-09-28T03:15:07;7.10;99.90
14699;DHT22;7439;50.804;4.602;2022-09-28T03:17:36;7.00;99.90
14699;DHT22;7439;50.804;4.602;2022-09-28T03:20:08;7.00;99.90
14699;DHT22;7439;50.804;4.602;2022-09-28T03:22:36;7.00;99.90
14699;DHT22;7439;50.804;4.602;2022-09-28T03:25:07;7.10;99.90
14699;DHT22;7439;50.804;4.602;2022-09-28T03:27:38;7.10;99.90
14699;DHT22;7439;50.804;4.602;2022-09-28T03:30:08;7.00;99.90
14699;DHT22;7439;50.804;4.602;2022-09-28T03:32:36;7.00;99.90
14699;DHT22;7439;50.804;4.602;2022-09-28T03:35:08;7.00;99.90
14699;DHT22;7439;50.804;4.602;2022-09-28T03:37:36;6.90;99.90
14699;DHT22;7439;50.804;4.602;2022-09-28T03:40:04;6.80;99.90
14699;DHT22;7439;50.804;4.602;2022-09-28T03:42:34;6.80;99.90
14699;DHT22;7439;50.804;4.602;2022-09-28T03:45:03;6.80;99.90
14699;DHT22;7439;50.804;4.602;2022-09-28T03:47:31;6.80;99.90
14699;DHT22;7439;50.804;4.602;2022-09-28T03:49:58;6.90;99.90
14699;DHT22;7439;50.804;4.602;2022-09-28T03:52:25;6.90;99.90
14699;DHT22;7439;50.804;4.602;2022-09-28T03:54:52;7.00;99.90
14699;DHT22;7439;50.804;4.602;2022-09-28T03:57:22;6.90;99.90
14699;DHT22;7439;50.804;4.602;2022-09-28T03:59:49;6.90;99.90
14699;DHT22;7439;50.804;4.602;2022-09-28T04:02:17;6.80;99.90
14699;DHT22;7439;50.804;4.602;2022-09-28T04:04:45;6.80;99.90
14699;DHT22;7439;50.804;4.602;2022-09-28T04:07:12;6.70;99.90
14699;DHT22;7439;50.804;4.602;2022-09-28T04:09:39;6.60;99.90
14699;DHT22;7439;50.804;4.602;2022-09-28T04:12:09;6.60;99.90
14699;DHT22;7439;50.804;4.602;2022-09-28T04:14:39;6.50;99.90
14699;DHT22;7439;50.804;4.602;2022-09-28T04:17:09;6.40;99.90
14699;DHT22;7439;50.804;4.602;2022-09-28T04:19:39;6.40;99.90
14699;DHT22;7439;50.804;4.602;2022-09-28T04:22:10;6.30;99.90
14699;DHT22;7439;50.804;4.602;2022-09-28T04:24:40;6.30;99.90
14699;DHT22;7439;50.804;4.602;2022-09-28T04:27:10;6.30;99.90
14699;DHT22;7439;50.804;4.602;2022-09-28T04:29:55;6.30;99.90
14699;DHT22;7439;50.804;4.602;2022-09-28T04:32:22;6.30;99.90
14699;DHT22;7439;50.804;4.602;2022-09-28T04:34:49;6.20;99.90
14699;DHT22;7439;50.804;4.602;2022-09-28T04:37:18;6.30;99.90
14699;DHT22;7439;50.804;4.602;2022-09-28T04:39:45;6.30;99.90
14699;DHT22;7439;50.804;4.602;2022-09-28T04:42:12;6.40;99.90
14699;DHT22;7439;50.804;4.602;2022-09-28T04:44:40;6.40;99.90
14699;DHT22;7439;50.804;4.602;2022-09-28T04:47:07;6.40;99.90
14699;DHT22;7439;50.804;4.602;2022-09-28T04:49:35;6.30;99.90
14699;DHT22;7439;50.804;4.602;2022-09-28T04:52:03;6.30;99.90
14699;DHT22;7439;50.804;4.602;2022-09-28T04:54:32;6.30;99.90
14699;DHT22;7439;50.804;4.602;2022-09-28T04:56:59;6.20;99.90
14699;DHT22;7439;50.804;4.602;2022-09-28T04:59:28;6.20;99.90
14699;DHT22;7439;50.804;4.602;2022-09-28T05:01:55;6.20;99.90
14699;DHT22;7439;50.804;4.602;2022-09-28T05:04:22;6.30;99.90
14699;DHT22;7439;50.804;4.602;2022-09-28T05:06:50;6.30;99.90
14699;DHT22;7439;50.804;4.602;2022-09-28T05:09:17;6.30;99.90
14699;DHT22;7439;50.804;4.602;2022-09-28T05:11:47;6.30;99.90
14699;DHT22;7439;50.804;4.602;2022-09-28T05:14:14;6.30;99.90
14699;DHT22;7439;50.804;4.602;2022-09-28T05:16:42;6.30;99.90
14699;DHT22;7439;50.804;4.602;2022-09-28T05:19:12;6.50;99.90
14699;DHT22;7439;50.804;4.602;2022-09-28T05:21:42;6.50;99.90
14699;DHT22;7439;50.804;4.602;2022-09-28T05:24:10;6.50;99.90
14699;DHT22;7439;50.804;4.602;2022-09-28T05:26:38;6.40;99.90
14699;DHT22;7439;50.804;4.602;2022-09-28T05:29:06;6.30;99.90
14699;DHT22;7439;50.804;4.602;2022-09-28T05:31:33;6.20;99.90
14699;DHT22;7439;50.804;4.602;2022-09-28T05:34:00;6.10;99.90
14699;DHT22;7439;50.804;4.602;2022-09-28T05:36:28;6.10;99.90
14699;DHT22;7439;50.804;4.602;2022-09-28T05:38:57;6.00;99.90
14699;DHT22;7439;50.804;4.602;2022-09-28T05:41:24;5.90;99.90
14699;DHT22;7439;50.804;4.602;2022-09-28T05:43:51;5.90;99.90
14699;DHT22;7439;50.804;4.602;2022-09-28T05:46:20;5.90;99.90
14699;DHT22;7439;50.804;4.602;2022-09-28T05:48:48;5.80;99.90
14699;DHT22;7439;50.804;4.602;2022-09-28T05:51:15;5.80;99.90
14699;DHT22;7439;50.804;4.602;2022-09-28T05:53:43;5.80;99.90
14699;DHT22;7439;50.804;4.602;2022-09-28T05:56:10;5.80;99.90
14699;DHT22;7439;50.804;4.602;2022-09-28T05:58:39;5.80;99.90
14699;DHT22;7439;50.804;4.602;2022-09-28T06:01:06;5.80;99.90
14699;DHT22;7439;50.804;4.602;2022-09-28T06:03:35;5.80;99.90
14699;DHT22;7439;50.804;4.602;2022-09-28T06:06:02;5.80;99.90
14699;DHT22;7439;50.804;4.602;2022-09-28T06:08:30;5.80;99.90
14699;DHT22;7439;50.804;4.602;2022-09-28T06:10:58;5.80;99.90
14699;DHT22;7439;50.804;4.602;2022-09-28T06:13:26;5.90;99.90
14699;DHT22;7439;50.804;4.602;2022-09-28T06:15:54;5.90;99.90
14699;DHT22;7439;50.804;4.602;2022-09-28T06:18:22;6.00;99.90
14699;DHT22;7439;50.804;4.602;2022-09-28T06:20:50;6.10;99.90
14699;DHT22;7439;50.804;4.602;2022-09-28T06:23:17;6.20;99.90
14699;DHT22;7439;50.804;4.602;2022-09-28T06:25:45;6.40;99.90
14699;DHT22;7439;50.804;4.602;2022-09-28T06:28:13;6.40;99.90
14699;DHT22;7439;50.804;4.602;2022-09-28T06:30:42;6.50;99.90
14699;DHT22;7439;50.804;4.602;2022-09-28T06:33:11;6.60;99.90
14699;DHT22;7439;50.804;4.602;2022-09-28T06:35:39;6.70;99.90
14699;DHT22;7439;50.804;4.602;2022-09-28T06:38:08;6.80;99.90
14699;DHT22;7439;50.804;4.602;2022-09-28T06:40:44;6.80;99.90
14699;DHT22;7439;50.804;4.602;2022-09-28T06:43:14;7.00;99.90
14699;DHT22;7439;50.804;4.602;2022-09-28T06:45:50;7.20;99.90
14699;DHT22;7439;50.804;4.602;2022-09-28T06:48:17;7.40;99.90
14699;DHT22;7439;50.804;4.602;2022-09-28T06:50:45;7.40;99.90
14699;DHT22;7439;50.804;4.602;2022-09-28T06:53:14;7.60;99.90
14699;DHT22;7439;50.804;4.602;2022-09-28T06:55:42;7.70;99.90
14699;DHT22;7439;50.804;4.602;2022-09-28T06:58:14;7.70;99.90
14699;DHT22;7439;50.804;4.602;2022-09-28T07:00:44;7.80;99.90
14699;DHT22;7439;50.804;4.602;2022-09-28T07:03:16;7.90;99.90
14699;DHT22;7439;50.804;4.602;2022-09-28T07:05:53;8.00;99.90
14699;DHT22;7439;50.804;4.602;2022-09-28T07:08:24;8.00;99.90
14699;DHT22;7439;50.804;4.602;2022-09-28T07:10:54;8.10;99.90
14699;DHT22;7439;50.804;4.602;2022-09-28T07:13:23;8.20;99.90
14699;DHT22;7439;50.804;4.602;2022-09-28T07:15:54;8.40;99.90
14699;DHT22;7439;50.804;4.602;2022-09-28T07:18:21;8.50;99.90
14699;DHT22;7439;50.804;4.602;2022-09-28T07:20:49;8.50;99.90
14699;DHT22;7439;50.804;4.602;2022-09-28T07:23:17;8.60;99.90
14699;DHT22;7439;50.804;4.602;2022-09-28T07:25:46;8.80;99.90
14699;DHT22;7439;50.804;4.602;2022-09-28T07:28:15;8.90;99.90
14699;DHT22;7439;50.804;4.602;2022-09-28T07:30:44;9.00;99.90
14699;DHT22;7439;50.804;4.602;2022-09-28T07:33:14;9.20;99.90
14699;DHT22;7439;50.804;4.602;2022-09-28T07:35:52;9.30;99.90
14699;DHT22;7439;50.804;4.602;2022-09-28T07:38:22;9.60;99.90
14699;DHT22;7439;50.804;4.602;2022-09-28T07:40:55;9.70;99.90
14699;DHT22;7439;50.804;4.602;2022-09-28T07:43:37;9.80;99.90
14699;DHT22;7439;50.804;4.602;2022-09-28T07:46:06;9.90;99.90
14699;DHT22;7439;50.804;4.602;2022-09-28T07:48:38;10.10;99.90
14699;DHT22;7439;50.804;4.602;2022-09-28T07:51:06;10.30;99.90
14699;DHT22;7439;50.804;4.602;2022-09-28T07:53:35;10.50;99.90
14699;DHT22;7439;50.804;4.602;2022-09-28T07:56:05;10.50;99.90
14699;DHT22;7439;50.804;4.602;2022-09-28T07:58:34;10.60;99.90
14699;DHT22;7439;50.804;4.602;2022-09-28T08:01:06;10.90;99.90
14699;DHT22;7439;50.804;4.602;2022-09-28T08:03:35;11.20;99.90
14699;DHT22;7439;50.804;4.602;2022-09-28T08:06:04;11.40;99.90
14699;DHT22;7439;50.804;4.602;2022-09-28T08:08:34;11.30;99.90
14699;DHT22;7439;50.804;4.602;2022-09-28T08:11:06;11.60;99.90
14699;DHT22;7439;50.804;4.602;2022-09-28T08:13:35;11.40;99.90
14699;DHT22;7439;50.804;4.602;2022-09-28T08:16:03;11.80;99.90
14699;DHT22;7439;50.804;4.602;2022-09-28T08:18:33;12.20;99.90
14699;DHT22;7439;50.804;4.602;2022-09-28T08:21:01;12.20;99.90
14699;DHT22;7439;50.804;4.602;2022-09-28T08:23:46;12.00;99.90
14699;DHT22;7439;50.804;4.602;2022-09-28T08:26:16;11.90;99.90
14699;DHT22;7439;50.804;4.602;2022-09-28T08:28:45;12.10;99.90
14699;DHT22;7439;50.804;4.602;2022-09-28T08:31:15;12.50;99.90
14699;DHT22;7439;50.804;4.602;2022-09-28T08:33:42;12.60;99.90
14699;DHT22;7439;50.804;4.602;2022-09-28T08:36:10;13.00;99.90
14699;DHT22;7439;50.804;4.602;2022-09-28T08:38:38;13.20;1.00
14699;DHT22;7439;50.804;4.602;2022-09-28T08:41:13;13.60;1.00
14699;DHT22;7439;50.804;4.602;2022-09-28T08:44:02;14.10;1.00
14699;DHT22;7439;50.804;4.602;2022-09-28T08:46:36;13.90;1.00
14699;DHT22;7439;50.804;4.602;2022-09-28T08:49:09;13.90;1.00
14699;DHT22;7439;50.804;4.602;2022-09-28T08:51:44;14.50;99.90
14699;DHT22;7439;50.804;4.602;2022-09-28T08:54:24;14.40;99.90
14699;DHT22;7439;50.804;4.602;2022-09-28T08:56:57;14.40;99.90
14699;DHT22;7439;50.804;4.602;2022-09-28T08:59:45;14.90;1.00
14699;DHT22;7439;50.804;4.602;2022-09-28T09:02:15;14.70;1.30
14699;DHT22;7439;50.804;4.602;2022-09-28T09:04:43;14.50;1.00
14699;DHT22;7439;50.804;4.602;2022-09-28T09:07:29;14.30;99.90
14699;DHT22;7439;50.804;4.602;2022-09-28T09:10:16;14.60;99.90
14699;DHT22;7439;50.804;4.602;2022-09-28T09:12:51;15.10;75.40
14699;DHT22;7439;50.804;4.602;2022-09-28T09:15:45;15.60;1.00
14699;DHT22;7439;50.804;4.602;2022-09-28T09:18:22;16.30;1.00
14699;DHT22;7439;50.804;4.602;2022-09-28T09:20:55;16.60;1.00
14699;DHT22;7439;50.804;4.602;2022-09-28T09:23:33;16.30;1.00
14699;DHT22;7439;50.804;4.602;2022-09-28T09:26:07;16.20;99.90
14699;DHT22;7439;50.804;4.602;2022-09-28T09:28:49;16.50;99.90
14699;DHT22;7439;50.804;4.602;2022-09-28T09:31:38;16.30;99.90
14699;DHT22;7439;50.804;4.602;2022-09-28T09:34:40;16.40;99.90
14699;DHT22;7439;50.804;4.602;2022-09-28T09:37:21;16.50;99.90
14699;DHT22;7439;50.804;4.602;2022-09-28T09:40:09;16.70;99.90
14699;DHT22;7439;50.804;4.602;2022-09-28T09:42:53;17.30;99.90
14699;DHT22;7439;50.804;4.602;2022-09-28T09:45:37;17.90;99.90
14699;DHT22;7439;50.804;4.602;2022-09-28T09:48:11;16.90;99.90
14699;DHT22;7439;50.804;4.602;2022-09-28T09:50:48;16.10;99.90
14699;DHT22;7439;50.804;4.602;2022-09-28T09:53:22;15.60;99.90
14699;DHT22;7439;50.804;4.602;2022-09-28T09:55:54;16.10;99.90
14699;DHT22;7439;50.804;4.602;2022-09-28T09:58:25;16.10;99.90
14699;DHT22;7439;50.804;4.602;2022-09-28T10:00:58;16.20;99.90
14699;DHT22;7439;50.804;4.602;2022-09-28T10:03:31;16.50;99.90
14699;DHT22;7439;50.804;4.602;2022-09-28T10:06:02;16.70;99.90
14699;DHT22;7439;50.804;4.602;2022-09-28T10:08:34;17.30;98.90
14699;DHT22;7439;50.804;4.602;2022-09-28T10:11:07;17.50;67.70
14699;DHT22;7439;50.804;4.602;2022-09-28T10:13:37;17.80;93.80
14699;DHT22;7439;50.804;4.602;2022-09-28T10:16:05;18.50;56.30
14699;DHT22;7439;50.804;4.602;2022-09-28T10:18:34;18.00;27.30
14699;DHT22;7439;50.804;4.602;2022-09-28T10:21:02;18.10;29.40
14699;DHT22;7439;50.804;4.602;2022-09-28T10:23:34;18.70;18.30
14699;DHT22;7439;50.804;4.602;2022-09-28T10:26:24;17.50;8.90
14699;DHT22;7439;50.804;4.602;2022-09-28T10:28:55;16.10;2.70
14699;DHT22;7439;50.804;4.602;2022-09-28T10:31:43;15.30;14.80
14699;DHT22;7439;50.804;4.602;2022-09-28T10:34:24;14.70;5.20
14699;DHT22;7439;50.804;4.602;2022-09-28T10:36:53;15.00;28.70
14699;DHT22;7439;50.804;4.602;2022-09-28T10:39:29;15.10;9.20
14699;DHT22;7439;50.804;4.602;2022-09-28T10:41:58;15.60;7.40
14699;DHT22;7439;50.804;4.602;2022-09-28T10:44:29;17.00;7.70
14699;DHT22;7439;50.804;4.602;2022-09-28T10:47:02;18.10;1.00
14699;DHT22;7439;50.804;4.602;2022-09-28T10:49:45;18.80;1.00
14699;DHT22;7439;50.804;4.602;2022-09-28T10:52:36;20.00;1.00
14699;DHT22;7439;50.804;4.602;2022-09-28T10:55:26;19.20;1.00
14699;DHT22;7439;50.804;4.602;2022-09-28T10:57:53;18.20;1.00
14699;DHT22;7439;50.804;4.602;2022-09-28T11:00:32;17.20;1.00
14699;DHT22;7439;50.804;4.602;2022-09-28T11:03:00;16.80;1.00
14699;DHT22;7439;50.804;4.602;2022-09-28T11:05:30;16.20;1.00
14699;DHT22;7439;50.804;4.602;2022-09-28T11:08:52;15.90;1.00
14699;DHT22;7439;50.804;4.602;2022-09-28T11:11:21;17.80;1.00
14699;DHT22;7439;50.804;4.602;2022-09-28T11:14:16;18.50;1.00
14699;DHT22;7439;50.804;4.602;2022-09-28T11:20:33;19.60;1.00
14699;DHT22;7439;50.804;4.602;2022-09-28T11:23:28;20.00;1.00
14699;DHT22;7439;50.804;4.602;2022-09-28T11:26:04;21.20;1.00
14699;DHT22;7439;50.804;4.602;2022-09-28T11:28:35;21.20;1.00
14699;DHT22;7439;50.804;4.602;2022-09-28T11:31:40;21.10;1.00
14699;DHT22;7439;50.804;4.602;2022-09-28T12:04:45;19.30;1.00
14699;DHT22;7439;50.804;4.602;2022-09-28T12:11:04;19.10;1.00
14699;DHT22;7439;50.804;4.602;2022-09-28T12:27:11;20.10;1.00
14699;DHT22;7439;50.804;4.602;2022-09-28T12:30:29;20.30;1.00
14699;DHT22;7439;50.804;4.602;2022-09-28T12:33:24;22.00;1.00
14699;DHT22;7439;50.804;4.602;2022-09-28T12:36:05;23.30;1.00
14699;DHT22;7439;50.804;4.602;2022-09-28T12:38:43;21.60;1.00
14699;DHT22;7439;50.804;4.602;2022-09-28T12:41:54;20.50;1.00
14699;DHT22;7439;50.804;4.602;2022-09-28T12:44:37;19.70;1.00
14699;DHT22;7439;50.804;4.602;2022-09-28T12:50:29;19.30;1.00
14699;DHT22;7439;50.804;4.602;2022-09-28T12:53:46;20.00;1.00
14699;DHT22;7439;50.804;4.602;2022-09-28T12:57:13;21.30;1.00
14699;DHT22;7439;50.804;4.602;2022-09-28T13:10:39;17.80;1.00
14699;DHT22;7439;50.804;4.602;2022-09-28T13:13:35;16.30;1.00
14699;DHT22;7439;50.804;4.602;2022-09-28T13:23:39;14.30;1.00
14699;DHT22;7439;50.804;4.602;2022-09-28T13:33:57;13.50;1.00
14699;DHT22;7439;50.804;4.602;2022-09-28T13:44:41;15.60;1.00
14699;DHT22;7439;50.804;4.602;2022-09-28T13:47:50;17.00;1.00
14699;DHT22;7439;50.804;4.602;2022-09-28T14:41:54;12.70;1.00
14699;DHT22;7439;50.804;4.602;2022-09-28T14:48:19;11.70;99.90
14699;DHT22;7439;50.804;4.602;2022-09-28T14:50:48;11.10;1.00
14699;DHT22;7439;50.804;4.602;2022-09-28T14:53:22;10.60;1.00
14699;DHT22;7439;50.804;4.602;2022-09-28T14:55:52;10.40;99.90
14699;DHT22;7439;50.804;4.602;2022-09-28T14:58:28;10.30;1.00
14699;DHT22;7439;50.804;4.602;2022-09-28T15:01:02;10.30;1.00
14699;DHT22;7439;50.804;4.602;2022-09-28T15:03:33;10.40;99.90
14699;DHT22;7439;50.804;4.602;2022-09-28T15:06:01;10.60;99.90
14699;DHT22;7439;50.804;4.602;2022-09-28T15:08:37;10.70;1.00
14699;DHT22;7439;50.804;4.602;2022-09-28T15:11:18;10.90;28.80
14699;DHT22;7439;50.804;4.602;2022-09-28T15:13:46;10.90;99.90
14699;DHT22;7439;50.804;4.602;2022-09-28T15:16:15;11.10;1.00
14699;DHT22;7439;50.804;4.602;2022-09-28T15:19:08;11.20;1.00
14699;DHT22;7439;50.804;4.602;2022-09-28T15:21:44;11.40;37.00
14699;DHT22;7439;50.804;4.602;2022-09-28T15:24:29;11.50;99.90
14699;DHT22;7439;50.804;4.602;2022-09-28T15:26:57;11.60;99.90
14699;DHT22;7439;50.804;4.602;2022-09-28T15:29:25;11.70;1.00
14699;DHT22;7439;50.804;4.602;2022-09-28T15:31:56;11.90;1.00
14699;DHT22;7439;50.804;4.602;2022-09-28T15:34:28;12.20;1.00
14699;DHT22;7439;50.804;4.602;2022-09-28T15:37:15;12.30;1.00
14699;DHT22;7439;50.804;4.602;2022-09-28T15:39:44;12.40;1.00
14699;DHT22;7439;50.804;4.602;2022-09-28T15:42:13;12.40;99.90
14699;DHT22;7439;50.804;4.602;2022-09-28T15:44:44;12.40;99.90
14699;DHT22;7439;50.804;4.602;2022-09-28T15:47:27;12.40;3.70
14699;DHT22;7439;50.804;4.602;2022-09-28T15:49:57;12.40;1.00
14699;DHT22;7439;50.804;4.602;2022-09-28T15:52:30;12.40;1.00
14699;DHT22;7439;50.804;4.602;2022-09-28T15:55:04;12.40;1.00
14699;DHT22;7439;50.804;4.602;2022-09-28T15:57:39;12.40;25.00
14699;DHT22;7439;50.804;4.602;2022-09-28T16:00:23;12.30;1.00
14699;DHT22;7439;50.804;4.602;2022-09-28T16:03:02;12.20;99.90
14699;DHT22;7439;50.804;4.602;2022-09-28T16:05:39;12.20;99.90
14699;DHT22;7439;50.804;4.602;2022-09-28T16:08:14;12.20;3.00
14699;DHT22;7439;50.804;4.602;2022-09-28T16:11:04;12.20;1.00
14699;DHT22;7439;50.804;4.602;2022-09-28T16:13:32;12.30;1.00
14699;DHT22;7439;50.804;4.602;2022-09-28T16:16:00;12.30;1.00
14699;DHT22;7439;50.804;4.602;2022-09-28T16:18:29;12.20;1.00
14699;DHT22;7439;50.804;4.602;2022-09-28T16:21:24;12.10;99.90
14699;DHT22;7439;50.804;4.602;2022-09-28T16:23:54;12.10;99.90
14699;DHT22;7439;50.804;4.602;2022-09-28T16:26:33;11.90;1.00
14699;DHT22;7439;50.804;4.602;2022-09-28T16:29:05;11.90;1.00
14699;DHT22;7439;50.804;4.602;2022-09-28T16:31:34;11.80;99.90
14699;DHT22;7439;50.804;4.602;2022-09-28T16:34:15;11.70;99.90
14699;DHT22;7439;50.804;4.602;2022-09-28T16:36:46;11.50;1.00
14699;DHT22;7439;50.804;4.602;2022-09-28T16:39:14;11.40;99.90
14699;DHT22;7439;50.804;4.602;2022-09-28T16:41:46;11.40;99.90
14699;DHT22;7439;50.804;4.602;2022-09-28T16:44:26;11.30;99.90
14699;DHT22;7439;50.804;4.602;2022-09-28T16:46:57;11.20;99.90
14699;DHT22;7439;50.804;4.602;2022-09-28T16:49:25;11.10;99.90
14699;DHT22;7439;50.804;4.602;2022-09-28T16:51:52;11.10;1.00
14699;DHT22;7439;50.804;4.602;2022-09-28T16:54:22;11.00;1.00
14699;DHT22;7439;50.804;4.602;2022-09-28T16:57:10;10.90;1.00
14699;DHT22;7439;50.804;4.602;2022-09-28T16:59:37;10.90;46.60
14699;DHT22;7439;50.804;4.602;2022-09-28T17:02:15;10.90;99.90
14699;DHT22;7439;50.804;4.602;2022-09-28T17:04:43;10.90;1.00
14699;DHT22;7439;50.804;4.602;2022-09-28T17:07:10;10.80;1.00
14699;DHT22;7439;50.804;4.602;2022-09-28T17:09:39;10.90;7.40
14699;DHT22;7439;50.804;4.602;2022-09-28T17:12:12;10.80;99.90
14699;DHT22;7439;50.804;4.602;2022-09-28T17:14:40;10.60;99.90
14699;DHT22;7439;50.804;4.602;2022-09-28T17:17:07;10.50;99.90
14699;DHT22;7439;50.804;4.602;2022-09-28T17:19:35;10.40;1.00
14699;DHT22;7439;50.804;4.602;2022-09-28T17:22:02;10.20;1.00
14699;DHT22;7439;50.804;4.602;2022-09-28T17:24:29;10.10;1.00
14699;DHT22;7439;50.804;4.602;2022-09-28T17:26:56;10.00;1.00
14699;DHT22;7439;50.804;4.602;2022-09-28T17:29:26;9.80;99.90
14699;DHT22;7439;50.804;4.602;2022-09-28T17:31:54;9.70;99.90
14699;DHT22;7439;50.804;4.602;2022-09-28T17:34:21;9.60;99.90
14699;DHT22;7439;50.804;4.602;2022-09-28T17:36:48;9.50;1.00
14699;DHT22;7439;50.804;4.602;2022-09-28T17:39:17;9.40;1.00
14699;DHT22;7439;50.804;4.602;2022-09-28T17:41:44;9.30;1.00
14699;DHT22;7439;50.804;4.602;2022-09-28T17:44:11;9.30;17.40
14699;DHT22;7439;50.804;4.602;2022-09-28T17:46:44;9.30;99.90
14699;DHT22;7439;50.804;4.602;2022-09-28T17:49:13;9.20;99.90
14699;DHT22;7439;50.804;4.602;2022-09-28T17:51:41;9.10;99.90
14699;DHT22;7439;50.804;4.602;2022-09-28T17:54:08;9.00;99.90
14699;DHT22;7439;50.804;4.602;2022-09-28T17:56:35;8.80;99.90
14699;DHT22;7439;50.804;4.602;2022-09-28T17:59:04;8.70;1.00
14699;DHT22;7439;50.804;4.602;2022-09-28T18:01:32;8.70;1.00
14699;DHT22;7439;50.804;4.602;2022-09-28T18:04:03;8.60;1.00
14699;DHT22;7439;50.804;4.602;2022-09-28T18:06:31;8.50;1.00
14699;DHT22;7439;50.804;4.602;2022-09-28T18:08:58;8.60;32.20
14699;DHT22;7439;50.804;4.602;2022-09-28T18:11:26;8.50;99.90
14699;DHT22;7439;50.804;4.602;2022-09-28T18:13:53;8.40;99.90
14699;DHT22;7439;50.804;4.602;2022-09-28T18:16:20;8.30;99.90
14699;DHT22;7439;50.804;4.602;2022-09-28T18:18:47;8.20;99.90
14699;DHT22;7439;50.804;4.602;2022-09-28T18:21:22;8.10;99.90
14699;DHT22;7439;50.804;4.602;2022-09-28T18:23:52;8.10;99.90
14699;DHT22;7439;50.804;4.602;2022-09-28T18:26:22;7.90;99.90
14699;DHT22;7439;50.804;4.602;2022-09-28T18:28:52;7.90;1.00
14699;DHT22;7439;50.804;4.602;2022-09-28T18:31:22;7.80;1.00
14699;DHT22;7439;50.804;4.602;2022-09-28T18:33:56;7.70;1.00
14699;DHT22;7439;50.804;4.602;2022-09-28T18:36:28;7.60;1.00
14699;DHT22;7439;50.804;4.602;2022-09-28T18:38:55;7.60;1.00
14699;DHT22;7439;50.804;4.602;2022-09-28T18:41:23;7.60;97.70
14699;DHT22;7439;50.804;4.602;2022-09-28T18:43:50;7.50;99.90
14699;DHT22;7439;50.804;4.602;2022-09-28T18:46:20;7.40;99.90
14699;DHT22;7439;50.804;4.602;2022-09-28T18:48:52;7.40;99.90
14699;DHT22;7439;50.804;4.602;2022-09-28T18:51:23;7.30;99.90
14699;DHT22;7439;50.804;4.602;2022-09-28T18:53:54;7.20;99.90
14699;DHT22;7439;50.804;4.602;2022-09-28T18:56:21;7.20;1.00
14699;DHT22;7439;50.804;4.602;2022-09-28T18:58:48;7.10;1.00
14699;DHT22;7439;50.804;4.602;2022-09-28T19:01:18;7.10;1.00
14699;DHT22;7439;50.804;4.602;2022-09-28T19:03:46;7.00;1.00